Japan Airlines Virtual Airport Information Service

Tianjin Binhai International Airport

ICAO: ZBTJ Country: China
Latitude: 39.1244 Longitude: 117.346
Latest Arrival : CSN464 (ZSPD-ZBTJ) Latest Departure : CSN464 (ZBTJ-ZLXY)


WX CaptureLIVE
Data provided by noaa.gov | Fetched at 15:19:43

METAR : ZBTJ 211500Z 20001MPS CAVOK 08/M02 Q1019 NOSIG

TAF : ZBTJ 210906Z 2112/2212 33004MPS 5000 HZ NSC TX14/2207Z TN03/2121Z BECMG 2202/2203 34009G16MPS BECMG 2206/2207 32004MPS


Runway Data for ZBTJ
Data provided by openaviationdata.com

Runway ID Mag Var Hdg Length Elevation Surface ILS Freq ILS Id ILS Slope
16 -6 160° 10505 ft 10 ft Asphalt 110.9 IJS 3
34 -6 340° 10505 ft 10 ft Asphalt 110.5 ICG 3

Tianjin Binhai International Airport, China
Use only for reference purposes



Not for navigational purposes.